createdAt,value
2019-03-03T00:01:29.700Z,8.21
2019-03-03T00:03:59.919Z,8.28
2019-03-03T00:06:30.191Z,8.29
2019-03-03T00:09:03.694Z,8.33
2019-03-03T00:11:33.045Z,8.34
2019-03-03T00:14:02.452Z,8.39
2019-03-03T00:16:34.341Z,8.48
2019-03-03T00:19:04.826Z,8.50
2019-03-03T00:21:34.091Z,8.53
2019-03-03T00:24:04.405Z,8.48
2019-03-03T00:26:34.743Z,8.50
2019-03-03T00:29:04.204Z,8.56
2019-03-03T00:31:39.359Z,8.54
2019-03-03T00:34:09.617Z,8.54
2019-03-03T00:36:57.231Z,8.55
2019-03-03T00:39:44.079Z,8.63
2019-03-03T00:42:24.658Z,8.68
2019-03-03T00:45:07.282Z,8.70
2019-03-03T00:47:55.540Z,8.67
2019-03-03T00:50:29.104Z,8.71
2019-03-03T00:53:00.049Z,8.66
2019-03-03T00:55:42.693Z,8.65
2019-03-03T00:58:18.778Z,8.68
2019-03-03T01:00:51.095Z,8.63
2019-03-03T01:03:28.685Z,8.67
2019-03-03T01:06:05.170Z,8.69
2019-03-03T01:08:37.029Z,8.65
2019-03-03T01:11:09.043Z,8.69
2019-03-03T01:13:44.113Z,8.68
2019-03-03T01:16:24.986Z,8.72
2019-03-03T01:19:05.845Z,8.76
2019-03-03T01:21:40.278Z,8.80
2019-03-03T01:24:14.490Z,8.83
2019-03-03T01:26:45.806Z,8.82
2019-03-03T01:29:16.562Z,8.85
2019-03-03T01:31:45.867Z,8.86
2019-03-03T01:34:16.210Z,8.84
2019-03-03T01:36:45.560Z,8.81
2019-03-03T01:39:15.379Z,8.81
2019-03-03T01:41:45.613Z,8.87
2019-03-03T01:44:15.821Z,8.86
2019-03-03T01:46:46.499Z,8.87
2019-03-03T01:49:17.572Z,8.82
2019-03-03T01:51:47.824Z,8.81
2019-03-03T01:54:20.019Z,8.80
2019-03-03T01:56:50.364Z,8.80
2019-03-03T01:59:20.623Z,8.82
2019-03-03T02:01:51.090Z,8.82
2019-03-03T02:04:21.299Z,8.82
2019-03-03T02:06:50.572Z,8.82
2019-03-03T02:09:20.973Z,8.85
2019-03-03T02:11:52.014Z,8.81
2019-03-03T02:14:21.332Z,8.86
2019-03-03T02:16:51.567Z,8.89
2019-03-03T02:19:21.926Z,8.83
2019-03-03T02:21:53.786Z,8.81
2019-03-03T02:24:24.066Z,8.87
2019-03-03T02:26:55.885Z,8.85
2019-03-03T02:29:25.354Z,8.82
2019-03-03T02:31:54.696Z,8.83
2019-03-03T02:34:24.215Z,8.83
2019-03-03T02:36:54.947Z,8.77
2019-03-03T02:39:24.976Z,8.81
2019-03-03T02:41:57.809Z,8.82
2019-03-03T02:44:30.133Z,8.85
2019-03-03T02:47:00.866Z,8.83
2019-03-03T02:49:30.148Z,8.84
2019-03-03T02:51:59.396Z,8.86
2019-03-03T02:54:29.721Z,8.86
2019-03-03T02:56:59.952Z,8.84
2019-03-03T02:59:29.260Z,8.85
2019-03-03T03:02:00.306Z,8.85
2019-03-03T03:04:31.313Z,8.82
2019-03-03T03:07:05.732Z,8.88
2019-03-03T03:09:37.719Z,8.87
2019-03-03T03:12:08.874Z,8.87
2019-03-03T03:14:45.386Z,8.83
2019-03-03T03:17:32.210Z,8.87
2019-03-03T03:20:12.984Z,8.82
2019-03-03T03:22:52.792Z,8.80
2019-03-03T03:25:24.667Z,8.80
2019-03-03T03:28:01.351Z,8.88
2019-03-03T03:30:47.425Z,8.81
2019-03-03T03:33:25.111Z,8.88
2019-03-03T03:35:59.479Z,8.89
2019-03-03T03:38:37.028Z,8.86
2019-03-03T03:41:10.681Z,8.84
2019-03-03T03:43:42.640Z,8.84
2019-03-03T03:46:14.544Z,8.89
2019-03-03T03:49:01.235Z,8.90
2019-03-03T03:51:38.661Z,8.91
2019-03-03T03:54:13.525Z,8.94
2019-03-03T03:57:01.652Z,8.92
2019-03-03T03:59:41.607Z,8.92
2019-03-03T04:02:28.518Z,8.94
2019-03-03T04:05:04.261Z,8.92
2019-03-03T04:07:35.163Z,8.88
2019-03-03T04:10:07.311Z,8.87
2019-03-03T04:12:51.854Z,8.84
2019-03-03T04:15:24.815Z,8.82
2019-03-03T04:17:58.543Z,8.87
2019-03-03T04:20:38.012Z,8.80
2019-03-03T04:23:11.722Z,8.73
2019-03-03T04:25:59.309Z,8.77
2019-03-03T04:28:49.013Z,8.81
2019-03-03T04:31:20.877Z,8.77
2019-03-03T04:33:55.279Z,8.83
2019-03-03T04:36:26.260Z,8.82
2019-03-03T04:38:57.224Z,8.76
2019-03-03T04:41:33.869Z,8.77
2019-03-03T04:44:04.747Z,8.77
2019-03-03T04:46:37.677Z,8.84
2019-03-03T04:49:24.354Z,8.84
2019-03-03T04:51:56.237Z,8.83
2019-03-03T04:54:41.332Z,8.80
2019-03-03T04:57:13.196Z,8.82
2019-03-03T04:59:56.781Z,8.83
2019-03-03T05:02:34.188Z,8.83
2019-03-03T05:05:06.097Z,8.83
2019-03-03T05:07:56.341Z,8.79
2019-03-03T05:10:45.065Z,8.79
2019-03-03T05:13:19.973Z,8.80
2019-03-03T05:15:50.914Z,8.82
2019-03-03T05:18:25.614Z,8.80
2019-03-03T05:20:54.917Z,8.84
2019-03-03T05:23:25.165Z,8.79
2019-03-03T05:25:55.473Z,8.78
2019-03-03T05:28:25.710Z,8.76
2019-03-03T05:30:54.929Z,8.80
2019-03-03T05:33:24.196Z,8.85
2019-03-03T05:35:54.388Z,8.83
2019-03-03T05:38:24.588Z,8.81
2019-03-03T05:40:54.821Z,8.81
2019-03-03T05:43:25.107Z,8.80
2019-03-03T05:45:55.607Z,8.76
2019-03-03T05:48:26.603Z,8.81
2019-03-03T05:50:57.484Z,8.71
2019-03-03T05:53:27.692Z,8.75
2019-03-03T05:55:56.977Z,8.78
2019-03-03T05:58:26.292Z,8.79
2019-03-03T06:00:56.517Z,8.90
2019-03-03T06:03:26.732Z,8.82
2019-03-03T06:05:56.019Z,8.82
2019-03-03T06:08:25.365Z,8.87
2019-03-03T06:10:55.629Z,8.91
2019-03-03T06:13:27.459Z,8.88
2019-03-03T06:15:56.706Z,8.88
2019-03-03T06:18:26.787Z,8.92
2019-03-03T06:20:57.007Z,8.97
2019-03-03T06:23:29.197Z,9.05
2019-03-03T06:25:59.405Z,9.09
2019-03-03T06:28:29.513Z,9.18
2019-03-03T06:30:59.779Z,9.25
2019-03-03T06:33:31.985Z,9.21
2019-03-03T06:36:01.248Z,9.28
2019-03-03T06:38:31.468Z,9.32
2019-03-03T06:41:03.220Z,9.39
2019-03-03T06:43:34.606Z,9.46
2019-03-03T06:46:03.843Z,9.54
2019-03-03T06:48:37.871Z,9.71
2019-03-03T06:51:08.099Z,9.82
2019-03-03T06:53:39.300Z,9.95
2019-03-03T06:56:10.056Z,9.95
2019-03-03T06:58:40.270Z,10.06
2019-03-03T07:01:10.537Z,10.16
2019-03-03T07:03:41.649Z,10.24
2019-03-03T07:06:10.915Z,10.28
2019-03-03T07:08:41.137Z,10.38
2019-03-03T07:11:10.407Z,10.56
2019-03-03T07:13:40.623Z,11.47
2019-03-03T07:16:09.892Z,13.00
2019-03-03T07:18:40.112Z,13.36
2019-03-03T07:21:09.381Z,12.92
2019-03-03T07:23:39.597Z,12.33
2019-03-03T07:26:08.815Z,11.67
2019-03-03T07:28:38.133Z,11.21
2019-03-03T07:31:07.432Z,11.18
2019-03-03T07:33:37.646Z,11.25
2019-03-03T07:36:08.743Z,11.25
2019-03-03T07:38:40.847Z,10.78
2019-03-03T07:41:11.054Z,10.48
2019-03-03T07:43:40.366Z,10.37
2019-03-03T07:46:11.371Z,10.22
2019-03-03T07:48:41.584Z,10.42
2019-03-03T07:51:11.879Z,10.45
2019-03-03T07:53:41.160Z,10.50
2019-03-03T07:56:10.439Z,10.65
2019-03-03T07:58:39.725Z,10.76
2019-03-03T08:01:13.107Z,10.82
2019-03-03T08:03:43.332Z,10.60
2019-03-03T08:06:14.798Z,10.48
2019-03-03T08:08:44.067Z,10.47
2019-03-03T08:11:14.150Z,10.36
2019-03-03T08:13:44.437Z,10.38
2019-03-03T08:16:14.673Z,10.39
2019-03-03T08:18:44.903Z,10.45
2019-03-03T08:21:15.188Z,10.46
2019-03-03T08:23:45.397Z,10.54
2019-03-03T08:26:16.168Z,10.70
2019-03-03T08:28:46.372Z,10.74
2019-03-03T08:31:16.613Z,10.80
2019-03-03T08:33:47.016Z,11.55
2019-03-03T08:36:16.372Z,13.77
2019-03-03T08:38:46.596Z,14.55
2019-03-03T08:41:16.887Z,15.46
2019-03-03T08:43:48.773Z,15.25
2019-03-03T08:46:20.739Z,15.42
2019-03-03T08:49:02.942Z,16.43
2019-03-03T08:51:36.675Z,16.50
2019-03-03T08:54:08.089Z,16.95
2019-03-03T08:56:59.341Z,17.31
2019-03-03T08:59:31.185Z,16.92
2019-03-03T09:02:08.878Z,17.24
2019-03-03T09:04:46.550Z,16.94
2019-03-03T09:07:26.244Z,16.60
2019-03-03T09:10:05.956Z,16.19
2019-03-03T09:12:43.861Z,16.96
2019-03-03T09:15:21.358Z,17.15
2019-03-03T09:18:12.355Z,17.21
2019-03-03T09:20:48.974Z,16.67
2019-03-03T09:23:31.590Z,16.91
2019-03-03T09:26:09.228Z,17.49
2019-03-03T09:28:42.838Z,17.40
2019-03-03T09:31:20.550Z,17.40
2019-03-03T09:33:56.132Z,16.74
2019-03-03T09:36:44.168Z,16.96
2019-03-03T09:39:16.440Z,16.21
2019-03-03T09:41:48.922Z,16.96
2019-03-03T09:44:20.781Z,17.06
2019-03-03T09:46:51.684Z,15.97
2019-03-03T09:49:23.867Z,14.88
2019-03-03T09:52:11.908Z,14.19
2019-03-03T09:54:45.603Z,13.73
2019-03-03T09:57:18.063Z,13.79
2019-03-03T10:00:00.527Z,13.43
2019-03-03T10:02:42.147Z,13.55
2019-03-03T10:05:19.039Z,13.34
2019-03-03T10:07:49.438Z,13.42
2019-03-03T10:10:29.187Z,13.53
2019-03-03T10:13:12.974Z,13.46
2019-03-03T10:15:52.373Z,13.34
2019-03-03T10:18:25.867Z,13.44
2019-03-03T10:21:14.867Z,13.36
2019-03-03T10:24:03.312Z,13.25
2019-03-03T10:26:43.825Z,13.27
2019-03-03T10:29:20.864Z,13.15
2019-03-03T10:31:52.709Z,13.19
2019-03-03T10:34:27.305Z,13.35
2019-03-03T10:37:07.108Z,13.62
2019-03-03T10:39:41.638Z,13.63
2019-03-03T10:42:21.221Z,13.68
2019-03-03T10:45:07.917Z,13.62
2019-03-03T10:47:39.790Z,13.86
2019-03-03T10:50:32.175Z,13.93
2019-03-03T10:53:04.835Z,13.88
2019-03-03T10:55:35.746Z,14.09
2019-03-03T10:58:19.525Z,13.93
2019-03-03T11:00:51.894Z,13.55
2019-03-03T11:03:26.478Z,13.67
2019-03-03T11:06:16.407Z,13.63
2019-03-03T11:08:54.130Z,13.33
2019-03-03T11:11:42.146Z,13.36
2019-03-03T11:14:17.321Z,13.24
2019-03-03T11:17:05.363Z,13.29
2019-03-03T11:19:56.112Z,13.44
2019-03-03T11:22:31.282Z,13.44
2019-03-03T11:25:05.094Z,13.44
2019-03-03T11:27:56.653Z,13.70
2019-03-03T11:30:31.667Z,13.68
2019-03-03T11:33:05.428Z,13.84
2019-03-03T11:35:43.191Z,13.84
2019-03-03T11:38:29.846Z,13.68
2019-03-03T11:41:01.712Z,13.69
2019-03-03T11:43:35.252Z,13.58
2019-03-03T11:46:25.037Z,13.67
2019-03-03T11:48:55.942Z,13.65
2019-03-03T11:51:32.484Z,13.69
2019-03-03T11:54:04.435Z,13.72
2019-03-03T11:56:38.317Z,13.51
2019-03-03T11:59:25.139Z,13.60
2019-03-03T12:02:15.023Z,13.49
2019-03-03T12:04:48.453Z,13.64
2019-03-03T12:07:20.331Z,13.56
2019-03-03T12:10:07.247Z,13.40
2019-03-03T12:12:44.041Z,13.40
2019-03-03T12:15:33.613Z,13.36
2019-03-03T12:18:05.540Z,13.14
2019-03-03T12:20:37.421Z,13.06
2019-03-03T12:23:11.217Z,13.02
2019-03-03T12:25:46.053Z,13.03
2019-03-03T12:28:20.591Z,12.91
2019-03-03T12:30:52.493Z,13.09
2019-03-03T12:33:39.181Z,13.14
2019-03-03T12:36:12.675Z,13.16
2019-03-03T12:38:43.108Z,13.26
2019-03-03T12:41:29.774Z,13.15
2019-03-03T12:44:04.360Z,13.16
2019-03-03T12:46:36.284Z,13.21
2019-03-03T12:49:23.717Z,13.14
2019-03-03T12:51:55.574Z,13.22
2019-03-03T12:54:36.142Z,13.21
2019-03-03T12:57:08.046Z,12.95
2019-03-03T12:59:52.206Z,12.85
2019-03-03T13:02:23.108Z,12.81
2019-03-03T13:05:09.839Z,12.97
2019-03-03T13:07:49.293Z,13.07
2019-03-03T13:10:23.553Z,13.17
2019-03-03T13:12:57.926Z,13.36
2019-03-03T13:15:28.341Z,13.47
2019-03-03T13:18:00.196Z,13.46
2019-03-03T13:20:32.046Z,13.52
2019-03-03T13:23:02.427Z,13.54
2019-03-03T13:25:51.188Z,13.53
2019-03-03T13:28:37.025Z,13.68
2019-03-03T13:31:16.622Z,13.73
2019-03-03T13:33:51.086Z,14.20
2019-03-03T13:36:37.867Z,14.46
2019-03-03T13:39:28.873Z,14.62
2019-03-03T13:42:12.557Z,14.88
2019-03-03T13:44:42.898Z,14.96
2019-03-03T13:47:13.160Z,15.01
2019-03-03T13:49:42.501Z,14.99
2019-03-03T13:52:13.154Z,14.60
2019-03-03T13:54:42.557Z,14.62
2019-03-03T13:57:12.941Z,14.32
2019-03-03T13:59:42.217Z,14.14
2019-03-03T14:02:15.719Z,14.13
2019-03-03T14:04:47.821Z,14.19
2019-03-03T14:07:18.140Z,14.04
2019-03-03T14:09:48.869Z,14.33
2019-03-03T14:12:19.092Z,14.44
2019-03-03T14:14:49.316Z,14.46
2019-03-03T14:17:20.147Z,14.41
2019-03-03T14:19:49.464Z,14.34
2019-03-03T14:22:21.581Z,14.14
2019-03-03T14:24:52.172Z,14.18
2019-03-03T14:27:23.566Z,14.00
2019-03-03T14:29:55.733Z,13.99
2019-03-03T14:32:26.034Z,14.03
2019-03-03T14:34:56.237Z,14.03
2019-03-03T14:37:26.934Z,14.06
2019-03-03T14:39:57.234Z,13.99
2019-03-03T14:42:26.533Z,13.91
2019-03-03T14:44:56.807Z,13.96
2019-03-03T14:47:27.054Z,13.77
2019-03-03T14:49:56.292Z,13.88
2019-03-03T14:52:27.342Z,13.77
2019-03-03T14:54:56.758Z,13.77
2019-03-03T14:57:29.076Z,13.85
2019-03-03T14:59:58.385Z,13.85
2019-03-03T15:02:29.915Z,13.74
2019-03-03T15:04:59.236Z,13.79
2019-03-03T15:07:29.518Z,13.85
2019-03-03T15:09:59.725Z,13.63
2019-03-03T15:12:30.039Z,13.68
2019-03-03T15:15:00.328Z,13.74
2019-03-03T15:17:30.541Z,13.46
2019-03-03T15:19:59.865Z,13.56
2019-03-03T15:22:29.172Z,13.63
2019-03-03T15:24:58.490Z,13.53
2019-03-03T15:27:27.893Z,13.50
2019-03-03T15:29:59.621Z,13.53
2019-03-03T15:32:30.198Z,13.56
2019-03-03T15:35:00.989Z,13.50
2019-03-03T15:37:30.343Z,13.51
2019-03-03T15:40:00.918Z,13.51
2019-03-03T15:42:31.526Z,13.45
2019-03-03T15:45:03.663Z,13.50
2019-03-03T15:47:33.960Z,13.46
2019-03-03T15:50:03.238Z,13.44
2019-03-03T15:52:32.519Z,13.39
2019-03-03T15:55:04.524Z,13.34
2019-03-03T15:57:35.365Z,13.31
2019-03-03T16:00:11.951Z,13.29
2019-03-03T16:02:41.397Z,13.31
2019-03-03T16:05:12.963Z,13.34
2019-03-03T16:07:42.420Z,13.33
2019-03-03T16:10:20.416Z,13.28
2019-03-03T16:12:49.669Z,13.24
2019-03-03T16:15:20.401Z,13.25
2019-03-03T16:17:49.668Z,13.18
2019-03-03T16:20:26.254Z,13.14
2019-03-03T16:22:55.579Z,13.19
2019-03-03T16:25:25.605Z,13.23
2019-03-03T16:27:55.829Z,13.19
2019-03-03T16:30:26.278Z,13.15
2019-03-03T16:32:56.521Z,13.12
2019-03-03T16:35:28.132Z,12.99
2019-03-03T16:37:58.350Z,12.96
2019-03-03T16:40:29.904Z,12.93
2019-03-03T16:42:59.748Z,12.85
2019-03-03T16:45:29.997Z,12.81
2019-03-03T16:47:59.254Z,12.78
2019-03-03T16:50:28.554Z,12.76
2019-03-03T16:52:58.766Z,12.74
2019-03-03T16:55:27.490Z,12.70
2019-03-03T16:57:58.738Z,12.68
2019-03-03T17:00:31.367Z,12.66
2019-03-03T17:03:01.682Z,12.65
2019-03-03T17:05:31.622Z,12.61
2019-03-03T17:08:01.878Z,12.42
2019-03-03T17:10:31.189Z,12.36
2019-03-03T17:13:01.525Z,12.26
2019-03-03T17:15:33.479Z,12.16
2019-03-03T17:18:03.697Z,12.10
2019-03-03T17:20:35.408Z,12.05
2019-03-03T17:23:04.244Z,12.01
2019-03-03T17:25:34.983Z,11.97
2019-03-03T17:28:04.265Z,11.95
2019-03-03T17:30:35.726Z,11.90
2019-03-03T17:33:05.957Z,11.83
2019-03-03T17:35:37.647Z,11.76
2019-03-03T17:38:07.986Z,11.68
2019-03-03T17:40:37.287Z,11.65
2019-03-03T17:43:06.617Z,11.61
2019-03-03T17:45:36.871Z,11.55
2019-03-03T17:48:09.295Z,11.50
2019-03-03T17:50:40.337Z,11.48
2019-03-03T17:53:10.608Z,11.48
2019-03-03T17:55:40.850Z,11.44
2019-03-03T17:58:11.638Z,11.37
2019-03-03T18:00:45.653Z,11.33
2019-03-03T18:03:14.965Z,11.31
2019-03-03T18:05:44.229Z,11.27
2019-03-03T18:08:15.349Z,11.22
2019-03-03T18:10:44.660Z,11.14
2019-03-03T18:13:13.385Z,11.08
2019-03-03T18:15:44.848Z,10.99
2019-03-03T18:18:14.863Z,10.94
2019-03-03T18:20:44.133Z,10.90
2019-03-03T18:23:13.974Z,10.93
2019-03-03T18:25:44.243Z,10.98
2019-03-03T18:28:14.564Z,11.05
2019-03-03T18:30:44.848Z,10.99
2019-03-03T18:33:17.007Z,11.02
2019-03-03T18:35:45.746Z,10.93
2019-03-03T18:38:15.045Z,11.00
2019-03-03T18:40:44.966Z,10.90
2019-03-03T18:43:14.278Z,10.80
2019-03-03T18:45:44.557Z,10.73
2019-03-03T18:48:17.172Z,10.62
2019-03-03T18:50:47.440Z,10.58
2019-03-03T18:53:17.731Z,10.57
2019-03-03T18:55:47.973Z,10.50
2019-03-03T18:58:20.039Z,10.49
2019-03-03T19:00:49.365Z,10.47
2019-03-03T19:03:21.645Z,10.43
2019-03-03T19:05:55.660Z,10.38
2019-03-03T19:08:22.639Z,10.44
2019-03-03T19:10:51.877Z,10.38
2019-03-03T19:13:22.276Z,10.35
2019-03-03T19:15:52.495Z,10.29
2019-03-03T19:18:21.845Z,10.22
2019-03-03T19:20:51.077Z,10.22
2019-03-03T19:23:20.439Z,10.20
2019-03-03T19:25:51.696Z,10.15
2019-03-03T19:28:22.008Z,10.16
2019-03-03T19:30:51.269Z,10.18
2019-03-03T19:33:28.112Z,10.20
2019-03-03T19:35:58.319Z,10.06
2019-03-03T19:38:29.801Z,10.15
2019-03-03T19:40:59.602Z,10.06
2019-03-03T19:43:28.953Z,9.95
2019-03-03T19:46:04.659Z,9.92
2019-03-03T19:48:36.070Z,9.86
2019-03-03T19:51:06.675Z,9.88
2019-03-03T19:53:36.310Z,9.93
2019-03-03T19:56:06.916Z,9.97
2019-03-03T19:58:36.239Z,9.92
2019-03-03T20:01:07.716Z,9.92
2019-03-03T20:03:37.093Z,9.97
2019-03-03T20:06:06.441Z,9.82
2019-03-03T20:08:36.752Z,9.79
2019-03-03T20:11:06.016Z,9.75
2019-03-03T20:13:40.017Z,9.74
2019-03-03T20:16:11.439Z,9.77
2019-03-03T20:18:41.425Z,9.71
2019-03-03T20:21:10.763Z,9.74
2019-03-03T20:23:41.010Z,9.75
2019-03-03T20:26:10.339Z,9.61
2019-03-03T20:28:42.891Z,9.52
2019-03-03T20:31:12.164Z,9.54
2019-03-03T20:33:42.823Z,9.56
2019-03-03T20:36:13.041Z,9.50
2019-03-03T20:38:42.603Z,9.45
2019-03-03T20:41:11.840Z,9.43
2019-03-03T20:43:41.150Z,9.32
2019-03-03T20:46:10.438Z,9.29
2019-03-03T20:48:40.803Z,9.40
2019-03-03T20:51:10.030Z,9.51
2019-03-03T20:53:40.243Z,9.41
2019-03-03T20:56:10.440Z,9.27
2019-03-03T20:58:39.750Z,9.25
2019-03-03T21:01:11.406Z,9.22
2019-03-03T21:03:41.107Z,9.21
2019-03-03T21:06:10.437Z,9.23
2019-03-03T21:08:40.730Z,9.23
2019-03-03T21:11:10.042Z,9.21
2019-03-03T21:13:42.158Z,9.13
2019-03-03T21:16:14.300Z,8.95
2019-03-03T21:18:44.562Z,8.84
2019-03-03T21:21:14.839Z,8.89
2019-03-03T21:23:46.992Z,8.94
2019-03-03T21:26:16.297Z,8.98
2019-03-03T21:28:46.487Z,9.08
2019-03-03T21:31:15.748Z,9.07
2019-03-03T21:33:45.027Z,9.15
2019-03-03T21:36:16.075Z,9.22
2019-03-03T21:38:46.318Z,9.15
2019-03-03T21:41:15.623Z,9.16
2019-03-03T21:43:44.902Z,9.19
2019-03-03T21:46:14.280Z,9.16
2019-03-03T21:48:44.526Z,9.11
2019-03-03T21:51:15.556Z,9.19
2019-03-03T21:53:44.784Z,9.11
2019-03-03T21:56:15.051Z,9.09
2019-03-03T21:58:45.286Z,9.09
2019-03-03T22:01:16.053Z,9.07
2019-03-03T22:03:46.742Z,9.17
2019-03-03T22:06:16.904Z,9.17
2019-03-03T22:08:47.171Z,9.01
2019-03-03T22:11:19.378Z,8.92
2019-03-03T22:13:49.580Z,9.13
2019-03-03T22:16:21.102Z,9.19
2019-03-03T22:18:51.441Z,9.27
2019-03-03T22:21:20.791Z,9.11
2019-03-03T22:23:51.118Z,9.02
2019-03-03T22:26:21.359Z,9.00
2019-03-03T22:28:51.590Z,8.91
2019-03-03T22:31:21.025Z,9.00
2019-03-03T22:33:51.283Z,8.82
2019-03-03T22:36:20.581Z,8.65
2019-03-03T22:38:50.798Z,8.70
2019-03-03T22:41:22.321Z,8.78
2019-03-03T22:43:54.417Z,8.66
2019-03-03T22:46:26.063Z,8.55
2019-03-03T22:48:55.383Z,8.59
2019-03-03T22:51:24.679Z,8.59
2019-03-03T22:53:53.957Z,8.55
2019-03-03T22:56:24.242Z,8.70
2019-03-03T22:58:53.509Z,8.79
2019-03-03T23:01:25.223Z,8.69
2019-03-03T23:04:04.306Z,8.62
2019-03-03T23:06:39.574Z,8.59
2019-03-03T23:09:11.876Z,8.58
2019-03-03T23:11:44.943Z,8.62
2019-03-03T23:14:26.225Z,8.61
2019-03-03T23:17:21.515Z,8.61
2019-03-03T23:19:56.551Z,8.60
2019-03-03T23:22:35.665Z,8.48
2019-03-03T23:25:25.288Z,8.42
2019-03-03T23:27:57.038Z,8.39
2019-03-03T23:30:26.315Z,8.23
2019-03-03T23:32:57.333Z,8.13
2019-03-03T23:35:27.591Z,8.08
2019-03-03T23:37:56.869Z,7.95
2019-03-03T23:40:27.119Z,8.03
2019-03-03T23:42:57.357Z,8.01
2019-03-03T23:45:28.974Z,7.92
2019-03-03T23:47:59.213Z,7.86
2019-03-03T23:50:31.349Z,7.87
2019-03-03T23:53:02.741Z,7.91
2019-03-03T23:55:33.016Z,7.91
2019-03-03T23:58:03.380Z,7.91
